createdAt,value
2022-11-28T00:00:48.674Z,3.70
2022-11-28T00:03:14.969Z,3.75
2022-11-28T00:05:46.771Z,3.45
2022-11-28T00:08:13.120Z,3.45
2022-11-28T00:10:39.290Z,3.95
2022-11-28T00:13:05.425Z,3.47
2022-11-28T00:15:31.588Z,3.65
2022-11-28T00:17:57.742Z,4.25
2022-11-28T00:20:24.599Z,4.20
2022-11-28T00:22:50.775Z,3.15
2022-11-28T00:25:16.960Z,4.15
2022-11-28T00:27:43.085Z,4.05
2022-11-28T00:30:09.253Z,3.67
2022-11-28T00:32:35.440Z,3.72
2022-11-28T00:35:01.648Z,3.38
2022-11-28T00:37:27.835Z,3.85
2022-11-28T00:39:53.965Z,4.03
2022-11-28T00:42:20.161Z,3.83
2022-11-28T00:44:46.322Z,4.15
2022-11-28T00:47:12.491Z,4.22
2022-11-28T00:49:38.674Z,3.83
2022-11-28T00:52:04.843Z,3.47
2022-11-28T00:54:31.548Z,4.25
2022-11-28T00:56:57.671Z,3.75
2022-11-28T00:59:23.821Z,3.80
2022-11-28T01:01:50.029Z,4.22
2022-11-28T01:04:16.234Z,3.83
2022-11-28T01:06:42.428Z,4.63
2022-11-28T01:09:08.551Z,4.18
2022-11-28T01:11:34.707Z,3.72
2022-11-28T01:14:00.899Z,4.40
2022-11-28T01:16:27.152Z,4.32
2022-11-28T01:18:53.395Z,4.15
2022-11-28T01:21:19.517Z,4.22
2022-11-28T01:23:45.658Z,4.15
2022-11-28T01:26:11.811Z,3.45
2022-11-28T01:28:37.943Z,4.65
2022-11-28T01:31:04.137Z,3.95
2022-11-28T01:33:30.354Z,4.13
2022-11-28T01:35:56.548Z,4.40
2022-11-28T01:38:22.723Z,4.47
2022-11-28T01:40:48.886Z,4.97
2022-11-28T01:43:15.005Z,4.18
2022-11-28T01:45:41.129Z,3.72
2022-11-28T01:48:07.306Z,4.57
2022-11-28T01:50:33.440Z,4.00
2022-11-28T01:52:59.559Z,4.13
2022-11-28T01:55:25.688Z,4.60
2022-11-28T01:57:51.864Z,4.32
2022-11-28T02:00:17.997Z,3.60
2022-11-28T02:02:44.179Z,3.85
2022-11-28T02:05:10.366Z,4.00
2022-11-28T02:07:36.615Z,3.85
2022-11-28T02:10:02.757Z,4.03
2022-11-28T02:12:28.934Z,4.55
2022-11-28T02:14:55.110Z,4.20
2022-11-28T02:17:21.238Z,4.68
2022-11-28T02:19:47.413Z,4.72
2022-11-28T02:22:13.573Z,4.80
2022-11-28T02:24:39.943Z,4.47
2022-11-28T02:27:06.183Z,4.57
2022-11-28T02:29:32.336Z,3.83
2022-11-28T02:31:58.471Z,5.10
2022-11-28T02:34:26.877Z,4.63
2022-11-28T02:36:53.046Z,4.78
2022-11-28T02:39:19.270Z,4.60
2022-11-28T02:41:45.404Z,4.60
2022-11-28T02:44:11.566Z,4.47
2022-11-28T02:46:37.782Z,4.65
2022-11-28T02:49:03.949Z,5.05
2022-11-28T02:51:30.108Z,4.95
2022-11-28T02:53:56.223Z,4.18
2022-11-28T02:56:22.332Z,4.32
2022-11-28T02:58:48.532Z,4.45
2022-11-28T03:01:14.844Z,4.75
2022-11-28T03:03:41.028Z,3.92
2022-11-28T03:06:07.156Z,4.82
2022-11-28T03:08:33.324Z,4.25
2022-11-28T03:10:59.507Z,4.47
2022-11-28T03:13:25.702Z,4.47
2022-11-28T03:15:51.920Z,4.15
2022-11-28T03:18:18.094Z,4.93
2022-11-28T03:20:44.263Z,5.03
2022-11-28T03:23:10.404Z,4.90
2022-11-28T03:25:36.543Z,4.80
2022-11-28T03:28:02.708Z,5.03
2022-11-28T03:30:28.885Z,4.35
2022-11-28T03:32:55.060Z,5.30
2022-11-28T03:35:21.225Z,4.15
2022-11-28T03:37:47.447Z,4.85
2022-11-28T03:40:13.591Z,5.07
2022-11-28T03:42:39.701Z,4.93
2022-11-28T03:45:05.887Z,5.13
2022-11-28T03:47:32.048Z,4.85
2022-11-28T03:49:58.231Z,4.68
2022-11-28T03:52:24.660Z,4.63
2022-11-28T03:54:50.844Z,5.05
2022-11-28T03:57:17.029Z,5.68
2022-11-28T03:59:43.159Z,5.05
2022-11-28T04:02:09.270Z,5.20
2022-11-28T04:04:35.447Z,5.07
2022-11-28T04:07:01.618Z,5.22
2022-11-28T04:09:27.810Z,5.63
2022-11-28T04:11:53.931Z,4.82
2022-11-28T04:14:20.110Z,5.03
2022-11-28T04:16:49.332Z,5.30
2022-11-28T04:19:18.417Z,4.85
2022-11-28T04:21:44.612Z,5.13
2022-11-28T04:24:10.726Z,4.93
2022-11-28T04:26:36.890Z,4.65
2022-11-28T04:29:03.089Z,3.60
2022-11-28T04:31:29.315Z,5.35
2022-11-28T04:33:55.478Z,5.65
2022-11-28T04:36:21.660Z,6.07
2022-11-28T04:38:47.827Z,5.40
2022-11-28T04:41:13.954Z,5.20
2022-11-28T04:43:40.154Z,4.63
2022-11-28T04:46:06.341Z,5.40
2022-11-28T04:48:34.437Z,5.53
2022-11-28T04:51:00.852Z,6.07
2022-11-28T04:53:27.067Z,4.93
2022-11-28T04:55:53.209Z,5.25
2022-11-28T04:58:19.313Z,4.88
2022-11-28T05:00:45.546Z,5.47
2022-11-28T05:03:17.772Z,4.85
2022-11-28T05:05:43.958Z,5.38
2022-11-28T05:08:10.103Z,5.47
2022-11-28T05:10:36.218Z,5.53
2022-11-28T05:13:02.355Z,5.75
2022-11-28T05:15:28.530Z,5.82
2022-11-28T05:17:56.139Z,5.43
2022-11-28T05:20:22.297Z,6.43
2022-11-28T05:22:48.447Z,5.93
2022-11-28T05:25:14.641Z,5.53
2022-11-28T05:27:40.822Z,5.60
2022-11-28T05:30:06.973Z,5.68
2022-11-28T05:32:33.164Z,5.10
2022-11-28T05:34:59.366Z,5.70
2022-11-28T05:37:25.488Z,6.30
2022-11-28T05:39:51.622Z,5.78
2022-11-28T05:42:17.752Z,6.82
2022-11-28T05:44:43.957Z,6.13
2022-11-28T05:47:10.145Z,5.10
2022-11-28T05:49:36.350Z,6.05
2022-11-28T05:52:02.534Z,5.80
2022-11-28T05:54:28.699Z,5.45
2022-11-28T05:56:54.851Z,5.43
2022-11-28T05:59:20.976Z,5.72
2022-11-28T06:01:47.216Z,6.60
2022-11-28T06:04:13.518Z,5.70
2022-11-28T06:06:39.711Z,6.68
2022-11-28T06:09:05.835Z,5.30
2022-11-28T06:11:32.005Z,5.70
2022-11-28T06:13:58.132Z,6.53
2022-11-28T06:16:24.324Z,6.20
2022-11-28T06:18:50.495Z,6.88
2022-11-28T06:21:16.798Z,6.20
2022-11-28T06:23:42.981Z,5.82
2022-11-28T06:26:09.138Z,6.32
2022-11-28T06:28:35.262Z,6.97
2022-11-28T06:31:01.424Z,6.03
2022-11-28T06:33:27.562Z,6.03
2022-11-28T06:35:53.740Z,6.13
2022-11-28T06:38:19.866Z,5.80
2022-11-28T06:40:46.105Z,5.50
2022-11-28T06:43:12.266Z,6.45
2022-11-28T06:45:38.463Z,6.55
2022-11-28T06:48:04.612Z,6.15
2022-11-28T06:50:30.850Z,5.95
2022-11-28T06:52:57.040Z,5.95
2022-11-28T06:55:23.182Z,6.32
2022-11-28T06:57:49.298Z,6.80
2022-11-28T07:00:15.471Z,6.35
2022-11-28T07:02:41.755Z,7.25
2022-11-28T07:05:07.952Z,6.50
2022-11-28T07:07:45.656Z,5.82
2022-11-28T07:10:19.149Z,6.40
2022-11-28T07:12:45.346Z,6.38
2022-11-28T07:15:11.520Z,6.63
2022-11-28T07:17:37.654Z,6.70
2022-11-28T07:20:03.794Z,6.50
2022-11-28T07:22:29.907Z,6.95
2022-11-28T07:24:56.049Z,7.50
2022-11-28T07:27:22.191Z,7.30
2022-11-28T07:29:48.323Z,7.18
2022-11-28T07:32:14.528Z,7.05
2022-11-28T07:34:40.803Z,7.13
2022-11-28T07:37:06.952Z,7.32
2022-11-28T07:39:33.123Z,6.97
2022-11-28T07:41:59.597Z,6.68
2022-11-28T07:44:25.770Z,6.80
2022-11-28T07:46:51.967Z,7.90
2022-11-28T07:49:18.205Z,7.22
2022-11-28T07:51:44.366Z,7.30
2022-11-28T07:54:10.528Z,7.40
2022-11-28T07:57:04.601Z,6.93
2022-11-28T07:59:22.866Z,6.70
2022-11-28T08:01:49.081Z,6.38
2022-11-28T08:04:15.413Z,7.38
2022-11-28T08:06:42.677Z,7.55
2022-11-28T08:09:08.809Z,7.90
2022-11-28T08:11:34.956Z,6.85
2022-11-28T08:14:01.124Z,7.65
2022-11-28T08:16:27.303Z,6.72
2022-11-28T08:18:53.525Z,7.68
2022-11-28T08:21:19.711Z,6.85
2022-11-28T08:23:45.833Z,7.65
2022-11-28T08:26:11.969Z,6.95
2022-11-28T08:28:38.176Z,6.90
2022-11-28T08:31:04.529Z,8.93
2022-11-28T08:33:30.762Z,7.38
2022-11-28T08:35:56.890Z,7.32
2022-11-28T08:38:23.089Z,7.68
2022-11-28T08:40:49.270Z,6.68
2022-11-28T08:43:15.399Z,8.23
2022-11-28T08:45:41.604Z,6.82
2022-11-28T08:48:07.884Z,8.27
2022-11-28T08:50:34.040Z,7.40
2022-11-28T08:53:07.626Z,7.78
2022-11-28T08:55:39.164Z,7.90
2022-11-28T08:58:07.851Z,6.65
2022-11-28T09:00:34.072Z,7.55
2022-11-28T09:03:00.244Z,8.30
2022-11-28T09:05:26.407Z,8.00
2022-11-28T09:07:52.611Z,8.30
2022-11-28T09:10:18.782Z,8.18
2022-11-28T09:12:44.967Z,8.07
2022-11-28T09:15:11.137Z,7.20
2022-11-28T09:17:37.320Z,7.57
2022-11-28T09:20:03.536Z,8.32
2022-11-28T09:22:29.724Z,8.60
2022-11-28T09:24:55.882Z,8.10
2022-11-28T09:27:22.027Z,8.35
2022-11-28T09:29:48.176Z,6.38
2022-11-28T09:32:14.292Z,7.72
2022-11-28T09:34:40.464Z,7.55
2022-11-28T09:37:06.892Z,8.93
2022-11-28T09:39:50.170Z,7.22
2022-11-28T09:42:19.245Z,7.43
2022-11-28T09:44:45.384Z,7.55
2022-11-28T09:47:11.497Z,7.03
2022-11-28T09:49:40.913Z,7.70
2022-11-28T09:52:07.519Z,7.97
2022-11-28T09:54:33.730Z,8.10
2022-11-28T09:56:59.919Z,7.60
2022-11-28T09:59:26.058Z,6.95
2022-11-28T10:01:52.224Z,8.00
2022-11-28T10:04:18.587Z,6.93
2022-11-28T10:06:44.988Z,7.47
2022-11-28T10:09:11.208Z,7.78
2022-11-28T10:11:37.422Z,7.53
2022-11-28T10:14:08.449Z,7.68
2022-11-28T10:19:01.395Z,7.85
2022-11-28T10:21:27.547Z,8.32
2022-11-28T10:23:53.726Z,7.65
2022-11-28T10:26:19.886Z,7.72
2022-11-28T10:28:46.065Z,8.38
2022-11-28T10:31:12.282Z,8.63
2022-11-28T10:33:38.442Z,8.10
2022-11-28T10:36:04.593Z,8.18
2022-11-28T10:38:30.773Z,8.63
2022-11-28T10:40:56.941Z,8.20
2022-11-28T10:43:23.113Z,7.75
2022-11-28T10:45:49.337Z,8.60
2022-11-28T10:48:39.559Z,8.25
2022-11-28T10:51:01.698Z,8.55
2022-11-28T10:53:27.855Z,8.15
2022-11-28T10:55:54.036Z,9.27
2022-11-28T10:58:20.230Z,8.95
2022-11-28T11:00:46.383Z,8.70
2022-11-28T11:03:12.558Z,9.02
2022-11-28T11:05:38.724Z,8.57
2022-11-28T11:08:04.932Z,9.10
2022-11-28T11:10:31.084Z,8.40
2022-11-28T11:12:57.279Z,8.38
2022-11-28T11:15:23.396Z,8.60
2022-11-28T11:17:52.679Z,8.55
2022-11-28T11:20:18.933Z,8.60
2022-11-28T11:22:46.199Z,8.68
2022-11-28T11:25:12.405Z,8.65
2022-11-28T11:27:38.567Z,8.50
2022-11-28T11:30:04.756Z,8.82
2022-11-28T11:32:30.920Z,8.63
2022-11-28T11:34:57.106Z,9.15
2022-11-28T11:37:23.232Z,9.05
2022-11-28T11:39:49.388Z,9.07
2022-11-28T11:42:15.515Z,9.23
2022-11-28T11:44:41.688Z,8.30
2022-11-28T11:47:07.884Z,7.97
2022-11-28T11:49:34.068Z,8.35
2022-11-28T11:52:00.224Z,8.38
2022-11-28T11:54:26.437Z,8.10
2022-11-28T11:57:05.674Z,8.27
2022-11-28T11:59:37.596Z,8.60
2022-11-28T12:02:03.746Z,8.85
2022-11-28T12:04:45.425Z,8.02
2022-11-28T12:07:12.705Z,10.23
2022-11-28T12:09:38.899Z,8.98
2022-11-28T12:12:05.084Z,8.13
2022-11-28T12:14:31.239Z,8.60
2022-11-28T12:16:57.394Z,8.77
2022-11-28T12:19:23.543Z,8.07
2022-11-28T12:21:49.706Z,8.73
2022-11-28T12:24:15.890Z,8.52
2022-11-28T12:26:42.064Z,8.70
2022-11-28T12:29:09.454Z,10.45
2022-11-28T12:31:35.944Z,8.43
2022-11-28T12:34:02.263Z,7.50
2022-11-28T12:36:28.429Z,7.82
2022-11-28T12:38:54.722Z,8.35
2022-11-28T12:41:20.910Z,8.82
2022-11-28T12:43:47.107Z,8.15
2022-11-28T12:46:13.315Z,7.88
2022-11-28T12:48:39.552Z,7.95
2022-11-28T12:51:05.784Z,8.75
2022-11-28T12:53:32.080Z,8.75
2022-11-28T12:55:58.234Z,8.52
2022-11-28T12:58:24.498Z,7.03
2022-11-28T13:00:50.689Z,6.72
2022-11-28T13:03:16.987Z,6.53
2022-11-28T13:05:43.276Z,7.05
2022-11-28T13:08:09.467Z,8.02
2022-11-28T13:10:35.713Z,7.20
2022-11-28T13:13:01.927Z,7.70
2022-11-28T13:15:28.151Z,7.13
2022-11-28T13:17:54.311Z,7.35
2022-11-28T13:20:20.514Z,7.00
2022-11-28T13:22:46.708Z,7.60
2022-11-28T13:25:12.893Z,6.95
2022-11-28T13:27:39.056Z,7.18
2022-11-28T13:30:05.221Z,6.93
2022-11-28T13:32:31.435Z,7.30
2022-11-28T13:34:57.646Z,6.97
2022-11-28T13:40:09.989Z,7.80
2022-11-28T13:43:02.382Z,7.65
2022-11-28T13:45:26.663Z,6.30
2022-11-28T13:47:58.529Z,6.18
2022-11-28T13:50:24.763Z,6.20
2022-11-28T13:52:50.944Z,6.10
2022-11-28T13:55:17.870Z,6.60
2022-11-28T13:57:44.177Z,7.22
2022-11-28T14:00:10.566Z,6.30
2022-11-28T14:02:36.777Z,6.50
2022-11-28T14:05:03.008Z,6.97
2022-11-28T14:07:29.236Z,6.97
2022-11-28T14:09:55.424Z,6.80
2022-11-28T14:12:21.593Z,7.00
2022-11-28T14:14:48.037Z,6.63
2022-11-28T14:17:14.289Z,7.20
2022-11-28T14:19:40.412Z,6.40
2022-11-28T14:22:06.605Z,6.85
2022-11-28T14:24:32.873Z,7.13
2022-11-28T14:26:59.125Z,6.40
2022-11-28T14:29:25.295Z,6.57
2022-11-28T14:32:14.153Z,6.57
2022-11-28T14:34:37.654Z,6.45
2022-11-28T14:37:03.902Z,6.85
2022-11-28T14:39:30.068Z,7.07
2022-11-28T14:41:56.209Z,6.57
2022-11-28T14:44:22.415Z,7.30
2022-11-28T14:46:48.773Z,6.80
2022-11-28T14:49:15.074Z,7.45
2022-11-28T14:51:41.354Z,6.80
2022-11-28T14:54:07.535Z,6.80
2022-11-28T14:56:33.822Z,7.00
2022-11-28T14:59:00.048Z,7.03
2022-11-28T15:01:26.256Z,7.35
2022-11-28T15:03:52.391Z,6.95
2022-11-28T15:06:18.542Z,7.20
2022-11-28T15:08:44.736Z,7.50
2022-11-28T15:11:10.910Z,7.25
2022-11-28T15:13:37.067Z,7.18
2022-11-28T15:16:03.263Z,8.20
2022-11-28T15:18:29.476Z,6.75
2022-11-28T15:20:55.650Z,8.25
2022-11-28T15:23:21.831Z,8.32
2022-11-28T15:25:47.971Z,7.93
2022-11-28T15:28:14.204Z,8.10
2022-11-28T15:30:40.414Z,8.20
2022-11-28T15:33:06.635Z,8.98
2022-11-28T15:35:32.970Z,7.93
2022-11-28T15:37:59.148Z,8.10
2022-11-28T15:40:25.388Z,8.30
2022-11-28T15:42:51.788Z,8.35
2022-11-28T15:45:18.023Z,9.15
2022-11-28T15:47:44.210Z,9.30
2022-11-28T15:50:10.349Z,8.95
2022-11-28T15:52:36.512Z,9.07
2022-11-28T15:55:02.691Z,9.07
2022-11-28T15:57:28.818Z,8.93
2022-11-28T15:59:54.948Z,8.25
2022-11-28T16:02:21.230Z,7.72
2022-11-28T16:04:47.524Z,9.13
2022-11-28T16:07:13.868Z,7.88
2022-11-28T16:09:40.109Z,8.02
2022-11-28T16:12:06.521Z,7.32
2022-11-28T16:14:32.763Z,7.30
2022-11-28T16:16:58.960Z,8.13
2022-11-28T16:19:25.174Z,7.47
2022-11-28T16:21:57.449Z,7.90
2022-11-28T16:24:24.874Z,7.78
2022-11-28T16:26:51.068Z,7.95
2022-11-28T16:29:17.282Z,8.45
2022-11-28T16:31:43.522Z,8.23
2022-11-28T16:34:09.713Z,7.57
2022-11-28T16:36:35.937Z,8.23
2022-11-28T16:39:02.098Z,7.70
2022-11-28T16:41:28.240Z,7.95
2022-11-28T16:43:54.426Z,8.30
2022-11-28T16:46:20.598Z,7.68
2022-11-28T16:48:46.808Z,8.05
2022-11-28T16:51:13.055Z,8.32
2022-11-28T16:53:39.196Z,7.68
2022-11-28T16:56:05.375Z,7.30
2022-11-28T16:58:31.589Z,9.25
2022-11-28T17:00:57.856Z,7.68
2022-11-28T17:03:24.075Z,8.18
2022-11-28T17:05:50.319Z,8.32
2022-11-28T17:08:16.518Z,8.20
2022-11-28T17:10:42.737Z,8.20
2022-11-28T17:13:08.954Z,8.10
2022-11-28T17:15:35.128Z,7.75
2022-11-28T17:20:51.794Z,8.18
2022-11-28T17:23:17.948Z,8.23
2022-11-28T17:25:44.141Z,8.45
2022-11-28T17:28:10.304Z,8.40
2022-11-28T17:30:36.454Z,8.18
2022-11-28T17:33:02.642Z,7.85
2022-11-28T17:35:28.800Z,8.20
2022-11-28T17:37:55.001Z,8.40
2022-11-28T17:40:21.196Z,8.10
2022-11-28T17:42:47.486Z,8.40
2022-11-28T17:45:13.687Z,8.25
2022-11-28T17:47:39.871Z,8.25
2022-11-28T17:50:06.055Z,8.65
2022-11-28T17:52:32.258Z,8.32
2022-11-28T17:55:03.489Z,8.55
2022-11-28T17:57:32.462Z,7.72
2022-11-28T17:59:58.719Z,8.48
2022-11-28T18:02:25.067Z,8.88
2022-11-28T18:04:51.241Z,8.88
2022-11-28T18:07:17.564Z,7.20
2022-11-28T18:09:43.910Z,7.97
2022-11-28T18:12:10.384Z,7.45
2022-11-28T18:14:39.669Z,9.07
2022-11-28T18:17:06.087Z,9.63
2022-11-28T18:19:32.221Z,7.90
2022-11-28T18:21:58.483Z,7.78
2022-11-28T18:24:24.616Z,7.97
2022-11-28T18:26:50.917Z,8.43
2022-11-28T18:29:17.129Z,7.07
2022-11-28T18:31:43.300Z,8.32
2022-11-28T18:34:09.502Z,8.80
2022-11-28T18:36:35.649Z,11.00
2022-11-28T18:39:01.797Z,9.98
2022-11-28T18:41:27.942Z,10.18
2022-11-28T18:43:54.102Z,11.38
2022-11-28T18:46:20.294Z,12.63
2022-11-28T18:48:46.527Z,10.68
2022-11-28T18:51:12.738Z,10.82
2022-11-28T18:53:38.919Z,9.93
2022-11-28T18:56:05.061Z,9.70
2022-11-28T18:58:31.248Z,10.98
2022-11-28T19:00:57.523Z,9.90
2022-11-28T19:03:23.946Z,10.43
2022-11-28T19:05:50.066Z,10.07
2022-11-28T19:08:16.191Z,9.38
2022-11-28T19:10:42.360Z,9.52
2022-11-28T19:13:08.559Z,9.80
2022-11-28T19:15:34.754Z,10.18
2022-11-28T19:18:00.989Z,11.02
2022-11-28T19:20:27.169Z,11.23
2022-11-28T19:22:53.300Z,12.23
2022-11-28T19:25:19.623Z,11.32
2022-11-28T19:27:45.835Z,11.13
2022-11-28T19:30:12.218Z,13.60
2022-11-28T19:32:38.521Z,12.70
2022-11-28T19:35:04.766Z,10.13
2022-11-28T19:37:31.164Z,11.85
2022-11-28T19:40:02.210Z,10.55
2022-11-28T19:42:28.991Z,10.85
2022-11-28T19:44:55.433Z,11.35
2022-11-28T19:47:22.149Z,11.13
2022-11-28T19:49:48.320Z,10.70
2022-11-28T19:52:14.903Z,11.35
2022-11-28T19:54:41.123Z,9.90
2022-11-28T19:57:07.416Z,10.27
2022-11-28T19:59:36.549Z,9.50
2022-11-28T20:02:02.805Z,10.15
2022-11-28T20:04:29.244Z,10.32
2022-11-28T20:06:55.455Z,15.40
2022-11-28T20:09:21.713Z,9.93
2022-11-28T20:11:47.888Z,10.85
2022-11-28T20:14:15.577Z,11.10
2022-11-28T20:16:41.810Z,10.90
2022-11-28T20:19:08.065Z,10.68
2022-11-28T20:21:34.248Z,10.38
2022-11-28T20:24:00.469Z,9.88
2022-11-28T20:26:29.277Z,10.95
2022-11-28T20:28:55.473Z,10.57
2022-11-28T20:31:21.719Z,10.80
2022-11-28T20:33:48.162Z,10.73
2022-11-28T20:36:14.322Z,10.82
2022-11-28T20:38:40.525Z,10.13
2022-11-28T20:41:06.955Z,10.13
2022-11-28T20:43:33.300Z,11.73
2022-11-28T20:45:59.482Z,10.70
2022-11-28T20:48:25.662Z,9.55
2022-11-28T20:50:51.835Z,10.30
2022-11-28T20:53:22.166Z,10.85
2022-11-28T20:55:51.376Z,10.10
2022-11-28T20:58:17.593Z,10.38
2022-11-28T21:00:43.878Z,11.23
2022-11-28T21:03:10.276Z,10.68
2022-11-28T21:05:36.520Z,9.90
2022-11-28T21:08:05.331Z,10.85
2022-11-28T21:10:31.695Z,10.32
2022-11-28T21:12:57.922Z,10.95
2022-11-28T21:15:24.150Z,11.02
2022-11-28T21:17:50.525Z,10.70
2022-11-28T21:20:16.761Z,11.20
2022-11-28T21:22:43.085Z,11.18
2022-11-28T21:25:09.291Z,11.15
2022-11-28T21:27:35.615Z,10.75
2022-11-28T21:30:02.047Z,10.32
2022-11-28T21:32:28.282Z,10.63
2022-11-28T21:34:56.405Z,10.60
2022-11-28T21:37:24.626Z,9.88
2022-11-28T21:39:50.912Z,9.77
2022-11-28T21:42:20.512Z,10.18
2022-11-28T21:44:47.141Z,9.75
2022-11-28T21:47:13.325Z,9.85
2022-11-28T21:49:39.532Z,9.25
2022-11-28T21:52:05.661Z,8.88
2022-11-28T21:54:31.854Z,9.23
2022-11-28T21:56:58.058Z,9.23
2022-11-28T21:59:24.211Z,10.43
2022-11-28T22:01:52.453Z,9.90
2022-11-28T22:04:19.321Z,9.00
2022-11-28T22:06:45.534Z,9.57
2022-11-28T22:09:11.675Z,9.68
2022-11-28T22:11:37.836Z,9.20
2022-11-28T22:14:09.562Z,10.15
2022-11-28T22:16:35.701Z,9.45
2022-11-28T22:19:01.842Z,9.75
2022-11-28T22:21:51.685Z,10.20
2022-11-28T22:24:14.106Z,9.57
2022-11-28T22:26:40.540Z,9.85
2022-11-28T22:29:06.653Z,9.48
2022-11-28T22:31:32.889Z,10.35
2022-11-28T22:33:59.163Z,9.98
2022-11-28T22:36:25.339Z,9.68
2022-11-28T22:38:51.464Z,9.55
2022-11-28T22:41:20.804Z,9.90
2022-11-28T22:43:50.857Z,10.13
2022-11-28T22:46:17.080Z,9.93
2022-11-28T22:48:43.323Z,9.90
2022-11-28T22:51:09.498Z,10.27
2022-11-28T22:53:35.691Z,9.75
2022-11-28T22:56:01.858Z,12.48
2022-11-28T22:58:28.115Z,11.07
2022-11-28T23:00:54.300Z,11.70
2022-11-28T23:03:20.550Z,10.68
2022-11-28T23:05:49.372Z,10.48
2022-11-28T23:08:15.693Z,12.02
2022-11-28T23:10:41.887Z,10.98
2022-11-28T23:13:08.176Z,11.52
2022-11-28T23:15:34.943Z,10.93
2022-11-28T23:18:01.138Z,10.20
2022-11-28T23:20:27.285Z,9.98
2022-11-28T23:22:53.499Z,9.98
2022-11-28T23:25:19.668Z,9.82
2022-11-28T23:27:45.794Z,10.20
2022-11-28T23:30:14.945Z,10.10
2022-11-28T23:32:41.126Z,10.05
2022-11-28T23:35:07.296Z,9.63
2022-11-28T23:37:33.457Z,10.38
2022-11-28T23:39:59.578Z,9.30
2022-11-28T23:42:25.805Z,9.77
2022-11-28T23:44:52.072Z,9.40
2022-11-28T23:47:18.224Z,9.55
2022-11-28T23:49:44.378Z,10.88
2022-11-28T23:52:10.511Z,10.25
2022-11-28T23:54:36.709Z,9.77
2022-11-28T23:57:02.909Z,10.50
2022-11-28T23:59:29.056Z,10.73
